createdAt,value
2018-04-29T00:00:44.309Z,99.99
2018-04-29T00:01:44.137Z,99.99
2018-04-29T00:02:44.332Z,99.99
2018-04-29T00:04:25.287Z,99.99
2018-04-29T00:05:25.544Z,99.99
2018-04-29T00:06:25.463Z,99.99
2018-04-29T00:07:25.462Z,99.99
2018-04-29T00:08:25.455Z,99.99
2018-04-29T00:09:25.665Z,99.99
2018-04-29T00:10:46.251Z,99.99
2018-04-29T00:11:46.476Z,99.99
2018-04-29T00:12:46.708Z,99.99
2018-04-29T00:13:46.648Z,99.99
2018-04-29T00:14:46.290Z,99.99
2018-04-29T00:15:46.048Z,99.99
2018-04-29T00:16:46.793Z,99.99
2018-04-29T00:17:46.750Z,99.99
2018-04-29T00:18:46.280Z,99.99
2018-04-29T00:19:46.926Z,99.99
2018-04-29T00:20:46.508Z,99.99
2018-04-29T00:21:46.195Z,99.99
2018-04-29T00:22:46.851Z,99.99
2018-04-29T00:23:46.445Z,99.99
2018-04-29T00:24:46.179Z,99.99
2018-04-29T00:25:45.945Z,99.99
2018-04-29T00:27:27.516Z,99.99
2018-04-29T00:28:49.141Z,99.99
2018-04-29T00:29:50.286Z,99.99
2018-04-29T00:30:50.042Z,99.99
2018-04-29T00:31:49.761Z,99.99
2018-04-29T00:32:49.336Z,99.99
2018-04-29T00:33:50.422Z,99.99
2018-04-29T00:34:49.155Z,99.99
2018-04-29T00:35:49.836Z,99.99
2018-04-29T00:36:49.559Z,99.99
2018-04-29T00:37:54.427Z,99.99
2018-04-29T00:38:50.002Z,99.99
2018-04-29T00:39:49.506Z,99.99
2018-04-29T00:40:49.085Z,99.99
2018-04-29T00:41:50.028Z,99.99
2018-04-29T00:42:50.019Z,99.99
2018-04-29T00:43:50.109Z,99.99
2018-04-29T00:44:50.034Z,99.99
2018-04-29T00:45:50.118Z,99.99
2018-04-29T00:46:49.905Z,99.99
2018-04-29T00:47:49.651Z,99.99
2018-04-29T00:49:09.776Z,99.99
2018-04-29T00:50:31.235Z,99.99
2018-04-29T00:51:31.136Z,99.99
2018-04-29T00:52:31.114Z,99.99
2018-04-29T00:53:32.155Z,99.99
2018-04-29T00:54:30.815Z,99.99
2018-04-29T00:55:32.001Z,99.99
2018-04-29T00:56:31.510Z,99.99
2018-04-29T00:57:31.639Z,99.99
2018-04-29T00:58:52.595Z,99.99
2018-04-29T00:59:53.569Z,99.99
2018-04-29T01:00:53.867Z,99.99
2018-04-29T01:01:54.521Z,99.99
2018-04-29T01:02:53.094Z,99.99
2018-04-29T01:04:16.218Z,99.99
2018-04-29T01:05:16.588Z,99.99
2018-04-29T01:06:16.826Z,99.99
2018-04-29T01:07:16.779Z,99.99
2018-04-29T01:08:16.775Z,99.99
2018-04-29T01:09:17.028Z,99.99
2018-04-29T01:10:17.870Z,99.99
2018-04-29T01:11:16.854Z,99.99
2018-04-29T01:12:16.705Z,99.99
2018-04-29T01:13:16.536Z,99.99
2018-04-29T01:14:36.588Z,99.99
2018-04-29T01:15:37.705Z,99.99
2018-04-29T01:16:37.645Z,99.99
2018-04-29T01:17:37.318Z,99.99
2018-04-29T01:18:36.899Z,99.99
2018-04-29T01:19:37.983Z,99.99
2018-04-29T01:20:36.751Z,99.99
2018-04-29T01:21:37.755Z,99.99
2018-04-29T01:22:37.650Z,99.99
2018-04-29T01:23:37.738Z,99.99
2018-04-29T01:24:37.356Z,99.99
2018-04-29T01:25:37.601Z,99.99
2018-04-29T01:26:40.749Z,99.99
2018-04-29T01:27:58.268Z,99.99
2018-04-29T01:28:58.816Z,99.99
2018-04-29T01:29:58.584Z,99.99
2018-04-29T01:30:58.224Z,99.99
2018-04-29T01:31:58.966Z,99.99
2018-04-29T01:32:58.527Z,99.99
2018-04-29T01:33:58.176Z,99.99
2018-04-29T01:34:58.855Z,99.99
2018-04-29T01:35:58.820Z,99.99
2018-04-29T01:36:59.055Z,99.99
2018-04-29T01:37:59.302Z,99.99
2018-04-29T01:38:59.334Z,99.99
2018-04-29T01:39:59.728Z,99.99
2018-04-29T01:40:58.678Z,99.99
2018-04-29T01:41:58.621Z,99.99
2018-04-29T01:43:19.061Z,99.99
2018-04-29T01:44:19.765Z,99.99
2018-04-29T01:45:19.690Z,99.99
2018-04-29T01:46:19.152Z,99.99
2018-04-29T01:47:20.015Z,99.99
2018-04-29T01:48:20.499Z,99.99
2018-04-29T01:49:19.533Z,99.99
2018-04-29T01:50:19.714Z,99.99
2018-04-29T01:51:19.516Z,99.99
2018-04-29T01:52:41.461Z,99.99
2018-04-29T01:53:42.417Z,99.99
2018-04-29T01:54:41.967Z,99.99
2018-04-29T01:56:30.959Z,99.99
2018-04-29T01:57:32.005Z,99.99
2018-04-29T01:58:30.730Z,99.99
2018-04-29T01:59:32.026Z,99.99
2018-04-29T02:00:32.055Z,99.99
2018-04-29T02:01:35.624Z,99.99
2018-04-29T02:02:32.391Z,99.99
2018-04-29T02:03:31.437Z,99.99
2018-04-29T02:04:31.134Z,99.99
2018-04-29T02:05:31.353Z,99.99
2018-04-29T02:06:30.954Z,99.99
2018-04-29T02:07:31.904Z,99.99
2018-04-29T02:08:31.811Z,99.99
2018-04-29T02:09:52.299Z,99.99
2018-04-29T02:10:54.693Z,99.99
2018-04-29T02:11:53.942Z,99.99
2018-04-29T02:12:53.133Z,99.99
2018-04-29T02:13:53.344Z,99.99
2018-04-29T02:14:52.059Z,99.99
2018-04-29T02:15:52.734Z,99.99
2018-04-29T02:16:52.302Z,99.99
2018-04-29T02:17:54.447Z,99.99
2018-04-29T02:19:34.456Z,99.99
2018-04-29T02:20:55.013Z,99.99
2018-04-29T02:21:54.806Z,99.99
2018-04-29T02:22:56.272Z,99.99
2018-04-29T02:23:55.672Z,99.99
2018-04-29T02:25:16.597Z,99.99
2018-04-29T02:26:17.485Z,99.99
2018-04-29T02:27:17.383Z,99.99
2018-04-29T02:28:19.015Z,99.99
2018-04-29T02:29:17.730Z,99.99
2018-04-29T02:30:17.858Z,99.99
2018-04-29T02:31:17.288Z,99.99
2018-04-29T02:32:16.956Z,99.99
2018-04-29T02:33:17.103Z,99.99
2018-04-29T02:34:17.177Z,99.99
2018-04-29T02:35:16.918Z,99.99
2018-04-29T02:36:17.216Z,99.99
2018-04-29T02:37:17.398Z,99.99
2018-04-29T02:38:17.452Z,99.99
2018-04-29T02:39:17.751Z,99.99
2018-04-29T02:40:17.307Z,99.99
2018-04-29T02:41:17.433Z,99.99
2018-04-29T02:42:59.306Z,99.99
2018-04-29T02:43:59.374Z,99.99
2018-04-29T02:44:59.174Z,99.99
2018-04-29T02:45:59.035Z,99.99
2018-04-29T02:46:59.545Z,99.99
2018-04-29T02:47:59.794Z,99.99
2018-04-29T02:48:59.406Z,99.99
2018-04-29T02:49:59.678Z,99.99
2018-04-29T02:51:20.216Z,99.99
2018-04-29T02:52:19.853Z,99.99
2018-04-29T02:54:02.716Z,99.99
2018-04-29T02:55:44.316Z,99.99
2018-04-29T02:56:44.892Z,99.99
2018-04-29T02:57:44.786Z,99.99
2018-04-29T02:58:44.557Z,99.99
2018-04-29T02:59:44.256Z,99.99
2018-04-29T03:00:45.432Z,99.99
2018-04-29T03:01:44.763Z,99.99
2018-04-29T03:02:45.809Z,99.99
2018-04-29T03:03:45.114Z,99.99
2018-04-29T03:04:45.403Z,99.99
2018-04-29T03:05:45.351Z,99.99
2018-04-29T03:06:44.507Z,99.99
2018-04-29T03:07:44.697Z,99.99
2018-04-29T03:08:44.868Z,99.99
2018-04-29T03:09:44.929Z,99.99
2018-04-29T03:10:44.907Z,99.99
2018-04-29T03:11:44.497Z,99.99
2018-04-29T03:12:50.609Z,99.99
2018-04-29T03:13:44.501Z,99.99
2018-04-29T03:14:44.478Z,99.99
2018-04-29T03:15:44.479Z,99.99
2018-04-29T03:16:44.331Z,99.99
2018-04-29T03:18:26.701Z,99.99
2018-04-29T03:19:27.413Z,99.99
2018-04-29T03:20:48.153Z,99.99
2018-04-29T03:21:49.011Z,99.99
2018-04-29T03:22:49.012Z,99.99
2018-04-29T03:23:48.888Z,99.99
2018-04-29T03:24:48.544Z,99.99
2018-04-29T03:25:48.311Z,99.99
2018-04-29T03:26:47.765Z,99.99
2018-04-29T03:28:29.520Z,99.99
2018-04-29T03:29:50.710Z,99.99
2018-04-29T03:30:51.260Z,99.99
2018-04-29T03:31:51.119Z,99.99
2018-04-29T03:32:51.081Z,99.99
2018-04-29T03:34:12.429Z,99.99
2018-04-29T03:35:33.412Z,99.99
2018-04-29T03:36:56.564Z,99.99
2018-04-29T03:37:57.440Z,99.99
2018-04-29T03:38:57.405Z,99.99
2018-04-29T03:40:18.045Z,99.99
2018-04-29T03:41:17.726Z,99.99
2018-04-29T03:42:18.244Z,99.99
2018-04-29T03:43:17.756Z,99.99
2018-04-29T03:44:18.356Z,99.99
2018-04-29T03:45:18.325Z,99.99
2018-04-29T03:46:38.054Z,99.99
2018-04-29T03:47:58.835Z,99.99
2018-04-29T03:48:59.880Z,99.99
2018-04-29T03:51:01.529Z,99.99
2018-04-29T03:52:02.439Z,99.99
2018-04-29T03:53:02.407Z,99.99
2018-04-29T03:54:02.030Z,99.99
2018-04-29T03:55:01.959Z,99.99
2018-04-29T03:56:02.987Z,99.99
2018-04-29T03:57:22.767Z,99.99
2018-04-29T03:58:23.337Z,99.99
2018-04-29T03:59:23.352Z,99.99
2018-04-29T04:00:23.296Z,99.99
2018-04-29T04:01:22.972Z,99.99
2018-04-29T04:02:22.717Z,99.99
2018-04-29T04:03:23.677Z,99.99
2018-04-29T04:04:23.379Z,99.99
2018-04-29T04:05:23.324Z,99.99
2018-04-29T04:06:23.143Z,99.99
2018-04-29T04:07:22.878Z,99.99
2018-04-29T04:08:22.657Z,99.99
2018-04-29T04:09:23.281Z,99.99
2018-04-29T04:10:43.777Z,99.99
2018-04-29T04:11:43.922Z,99.99
2018-04-29T04:12:44.177Z,99.99
2018-04-29T04:13:43.943Z,99.99
2018-04-29T04:14:43.983Z,99.99
2018-04-29T04:16:26.514Z,99.99
2018-04-29T04:17:27.327Z,99.99
2018-04-29T04:18:27.022Z,99.99
2018-04-29T04:19:27.042Z,99.99
2018-04-29T04:20:26.703Z,99.99
2018-04-29T04:21:48.241Z,99.99
2018-04-29T04:22:47.967Z,99.99
2018-04-29T04:23:48.988Z,99.99
2018-04-29T04:24:49.122Z,99.99
2018-04-29T04:25:49.244Z,99.99
2018-04-29T04:26:48.369Z,99.99
2018-04-29T04:27:48.555Z,99.99
2018-04-29T04:28:48.742Z,99.99
2018-04-29T04:29:48.452Z,99.99
2018-04-29T04:31:08.870Z,99.99
2018-04-29T04:32:09.854Z,99.99
2018-04-29T04:33:09.972Z,99.99
2018-04-29T04:34:10.128Z,99.99
2018-04-29T04:35:29.186Z,99.99
2018-04-29T04:36:29.845Z,99.99
2018-04-29T04:37:29.554Z,99.99
2018-04-29T04:38:29.680Z,99.99
2018-04-29T04:39:29.370Z,99.99
2018-04-29T04:40:30.099Z,99.99
2018-04-29T04:41:29.693Z,99.99
2018-04-29T04:42:49.808Z,99.99
2018-04-29T04:43:50.684Z,99.99
2018-04-29T04:44:50.297Z,99.99
2018-04-29T04:46:11.550Z,99.99
2018-04-29T04:47:11.680Z,99.99
2018-04-29T04:48:11.291Z,99.99
2018-04-29T04:49:12.458Z,99.99
2018-04-29T04:50:11.324Z,99.99
2018-04-29T04:51:12.401Z,99.99
2018-04-29T04:52:11.629Z,99.99
2018-04-29T04:53:11.725Z,99.99
2018-04-29T04:54:11.506Z,99.99
2018-04-29T04:55:11.504Z,99.99
2018-04-29T04:56:12.085Z,99.99
2018-04-29T04:57:12.209Z,99.99
2018-04-29T04:58:11.880Z,99.99
2018-04-29T04:59:32.084Z,99.99
2018-04-29T05:00:32.755Z,99.99
2018-04-29T05:01:53.125Z,99.99
2018-04-29T05:02:52.872Z,99.99
2018-04-29T05:03:53.953Z,99.99
2018-04-29T05:04:54.408Z,99.99
2018-04-29T05:06:34.613Z,99.99
2018-04-29T05:07:34.772Z,99.99
2018-04-29T05:08:34.831Z,99.99
2018-04-29T05:09:57.828Z,99.99
2018-04-29T05:10:57.583Z,99.99
2018-04-29T05:11:58.648Z,99.99
2018-04-29T05:12:58.395Z,99.99
2018-04-29T05:13:58.585Z,99.99
2018-04-29T05:14:58.579Z,99.99
2018-04-29T05:15:58.378Z,99.99
2018-04-29T05:16:58.445Z,99.99
2018-04-29T05:17:57.946Z,99.99
2018-04-29T05:18:58.191Z,99.99
2018-04-29T05:19:57.904Z,99.99
2018-04-29T05:20:57.844Z,99.99
2018-04-29T05:21:58.148Z,99.99
2018-04-29T05:22:58.407Z,99.99
2018-04-29T05:23:58.319Z,99.99
2018-04-29T05:24:58.415Z,99.99
2018-04-29T05:25:59.124Z,99.99
2018-04-29T05:26:58.191Z,99.99
2018-04-29T05:27:57.777Z,99.99
2018-04-29T05:28:57.463Z,99.99
2018-04-29T05:29:58.587Z,99.99
2018-04-29T05:30:58.757Z,99.99
2018-04-29T05:31:57.846Z,99.99
2018-04-29T05:32:57.823Z,99.99
2018-04-29T05:33:57.907Z,99.99
2018-04-29T05:34:58.037Z,99.99
2018-04-29T05:35:57.817Z,99.99
2018-04-29T05:36:58.092Z,99.99
2018-04-29T05:37:58.125Z,99.99
2018-04-29T05:38:57.815Z,99.99
2018-04-29T05:39:57.826Z,99.99
2018-04-29T05:40:58.696Z,99.99
2018-04-29T05:41:57.515Z,99.99
2018-04-29T05:42:58.246Z,99.99
2018-04-29T05:43:58.338Z,99.99
2018-04-29T05:44:58.001Z,99.99
2018-04-29T05:45:57.866Z,99.99
2018-04-29T05:46:57.943Z,99.99
2018-04-29T05:47:58.031Z,99.99
2018-04-29T05:49:19.265Z,99.99
2018-04-29T05:50:20.091Z,99.99
2018-04-29T05:51:20.287Z,99.99
2018-04-29T05:52:20.347Z,98.81
2018-04-29T05:53:20.224Z,97.90
2018-04-29T05:54:20.355Z,96.84
2018-04-29T05:55:20.196Z,96.32
2018-04-29T05:57:00.999Z,93.78
2018-04-29T05:58:01.857Z,93.11
2018-04-29T05:59:01.633Z,91.63
2018-04-29T06:00:02.405Z,90.09
2018-04-29T06:01:01.497Z,89.08
2018-04-29T06:02:01.224Z,87.59
2018-04-29T06:03:01.236Z,85.86
2018-04-29T06:04:01.951Z,84.37
2018-04-29T06:05:01.733Z,83.51
2018-04-29T06:06:01.616Z,83.31
2018-04-29T06:07:22.513Z,81.63
2018-04-29T06:08:22.748Z,80.38
2018-04-29T06:09:22.938Z,79.61
2018-04-29T06:10:22.619Z,79.03
2018-04-29T06:11:22.510Z,79.61
2018-04-29T06:12:23.174Z,78.94
2018-04-29T06:13:23.427Z,78.59
2018-04-29T06:14:22.354Z,77.92
2018-04-29T06:15:23.224Z,77.73
2018-04-29T06:16:23.078Z,77.92
2018-04-29T06:17:22.800Z,77.34
2018-04-29T06:18:22.808Z,77.38
2018-04-29T06:19:22.680Z,76.52
2018-04-29T06:20:23.015Z,76.32
2018-04-29T06:21:23.119Z,76.61
2018-04-29T06:22:43.639Z,76.07
2018-04-29T06:23:44.489Z,75.69
2018-04-29T06:25:05.351Z,75.02
2018-04-29T06:26:05.358Z,75.54
2018-04-29T06:27:05.340Z,74.13
2018-04-29T06:28:05.339Z,73.26
2018-04-29T06:29:05.252Z,72.97
2018-04-29T06:30:05.026Z,71.34
2018-04-29T06:31:05.321Z,71.20
2018-04-29T06:32:05.793Z,72.01
2018-04-29T06:33:05.764Z,72.01
2018-04-29T06:34:05.855Z,71.72
2018-04-29T06:35:05.750Z,70.95
2018-04-29T06:36:06.014Z,70.79
2018-04-29T06:37:06.100Z,69.57
2018-04-29T06:38:05.367Z,68.80
2018-04-29T06:39:05.229Z,67.55
2018-04-29T06:40:05.284Z,67.65
2018-04-29T06:41:05.231Z,66.78
2018-04-29T06:42:05.515Z,67.26
2018-04-29T06:43:05.629Z,67.26
2018-04-29T06:44:05.569Z,66.78
2018-04-29T06:45:05.701Z,66.91
2018-04-29T06:46:05.609Z,66.43
2018-04-29T06:47:05.776Z,65.75
2018-04-29T06:48:05.728Z,65.88
2018-04-29T06:49:05.800Z,65.01
2018-04-29T06:50:05.720Z,63.57
2018-04-29T06:51:06.164Z,63.37
2018-04-29T06:52:04.967Z,63.34
2018-04-29T06:53:05.283Z,64.31
2018-04-29T06:54:05.355Z,64.31
2018-04-29T06:55:47.303Z,64.28
2018-04-29T06:56:48.469Z,64.28
2018-04-29T06:57:47.333Z,64.08
2018-04-29T06:58:47.683Z,64.37
2018-04-29T06:59:47.549Z,64.21
2018-04-29T07:00:48.395Z,64.05
2018-04-29T07:01:47.562Z,63.44
2018-04-29T07:02:53.702Z,63.44
2018-04-29T07:03:47.994Z,63.44
2018-04-29T07:04:47.914Z,63.73
2018-04-29T07:05:47.872Z,63.47
2018-04-29T07:06:48.062Z,62.89
2018-04-29T07:07:48.381Z,62.38
2018-04-29T07:08:47.364Z,62.79
2018-04-29T07:09:47.604Z,62.60
2018-04-29T07:10:47.389Z,62.41
2018-04-29T07:11:47.366Z,62.79
2018-04-29T07:12:47.155Z,61.64
2018-04-29T07:13:47.027Z,61.83
2018-04-29T07:14:49.235Z,62.28
2018-04-29T07:15:47.446Z,61.93
2018-04-29T07:16:47.663Z,61.44
2018-04-29T07:17:47.660Z,61.44
2018-04-29T07:18:47.887Z,61.16
2018-04-29T07:20:09.094Z,60.99
2018-04-29T07:21:31.577Z,60.41
2018-04-29T07:22:31.791Z,61.03
2018-04-29T07:23:31.850Z,62.28
2018-04-29T07:24:53.086Z,62.76
2018-04-29T07:25:54.435Z,62.89
2018-04-29T07:26:53.264Z,62.28
2018-04-29T07:27:53.536Z,62.38
2018-04-29T07:28:54.300Z,61.99
2018-04-29T07:29:54.395Z,61.44
2018-04-29T07:30:53.897Z,61.35
2018-04-29T07:31:54.698Z,61.67
2018-04-29T07:32:54.084Z,60.96
2018-04-29T07:33:54.009Z,59.99
2018-04-29T07:34:54.276Z,59.99
2018-04-29T07:35:53.004Z,59.48
2018-04-29T07:36:54.179Z,59.89
2018-04-29T07:37:53.435Z,59.51
2018-04-29T07:38:53.639Z,60.38
2018-04-29T07:40:14.630Z,59.47
2018-04-29T07:41:14.860Z,58.24
2018-04-29T07:42:14.695Z,56.62
2018-04-29T07:43:14.488Z,56.75
2018-04-29T07:44:14.749Z,57.23
2018-04-29T07:45:14.917Z,56.72
2018-04-29T07:46:14.897Z,57.37
2018-04-29T07:47:14.897Z,58.28
2018-04-29T07:48:15.375Z,58.83
2018-04-29T07:49:57.205Z,60.06
2018-04-29T07:51:17.611Z,60.41
2018-04-29T07:52:19.057Z,60.73
2018-04-29T07:53:18.601Z,61.02
2018-04-29T07:54:23.184Z,62.15
2018-04-29T07:55:18.105Z,61.86
2018-04-29T07:56:39.325Z,61.89
2018-04-29T07:57:40.294Z,60.18
2018-04-29T07:58:40.213Z,60.21
2018-04-29T07:59:40.516Z,58.72
2018-04-29T08:00:39.823Z,57.98
2018-04-29T08:01:44.562Z,57.69
2018-04-29T08:02:39.323Z,56.92
2018-04-29T08:04:06.328Z,56.34
2018-04-29T08:05:06.412Z,56.30
2018-04-29T08:06:06.674Z,56.60
2018-04-29T08:07:06.603Z,55.63
2018-04-29T08:08:06.417Z,56.24
2018-04-29T08:09:06.641Z,55.10
2018-04-29T08:10:27.753Z,54.33
2018-04-29T08:11:28.202Z,55.76
2018-04-29T08:12:28.481Z,56.95
2018-04-29T08:13:28.396Z,57.51
2018-04-29T08:14:28.360Z,58.64
2018-04-29T08:15:28.460Z,59.58
2018-04-29T08:16:28.632Z,60.31
2018-04-29T08:17:27.986Z,60.48
2018-04-29T08:18:50.031Z,62.18
2018-04-29T08:19:50.618Z,63.24
2018-04-29T08:21:11.571Z,63.70
2018-04-29T08:22:11.951Z,64.47
2018-04-29T08:23:32.912Z,65.11
2018-04-29T08:24:55.930Z,64.53
2018-04-29T08:25:54.809Z,65.27
2018-04-29T08:26:55.127Z,65.94
2018-04-29T08:28:16.378Z,66.04
2018-04-29T08:29:16.662Z,66.88
2018-04-29T08:30:16.648Z,66.88
2018-04-29T08:31:17.386Z,67.35
2018-04-29T08:32:59.703Z,66.97
2018-04-29T08:34:01.384Z,67.35
2018-04-29T08:34:59.620Z,67.74
2018-04-29T08:36:00.082Z,68.22
2018-04-29T08:37:00.435Z,68.84
2018-04-29T08:38:00.035Z,69.41
2018-04-29T08:38:59.965Z,67.55
2018-04-29T08:40:00.482Z,68.70
2018-04-29T08:40:59.802Z,68.67
2018-04-29T08:42:00.369Z,68.96
2018-04-29T08:43:21.296Z,69.79
2018-04-29T08:44:21.602Z,69.50
2018-04-29T08:45:21.823Z,70.52
2018-04-29T08:46:21.335Z,71.00
2018-04-29T08:47:21.499Z,71.67
2018-04-29T08:48:21.901Z,72.34
2018-04-29T08:49:41.587Z,73.21
2018-04-29T08:50:43.095Z,73.31
2018-04-29T08:51:42.695Z,72.44
2018-04-29T08:52:41.615Z,72.25
2018-04-29T08:53:43.134Z,73.11
2018-04-29T08:54:42.568Z,73.31
2018-04-29T08:56:04.831Z,72.92
2018-04-29T08:57:05.050Z,73.21
2018-04-29T08:58:05.465Z,73.11
2018-04-29T08:59:04.955Z,73.60
2018-04-29T09:00:26.542Z,73.11
2018-04-29T09:01:25.655Z,73.79
2018-04-29T09:02:25.727Z,73.79
2018-04-29T09:03:25.833Z,73.60
2018-04-29T09:04:46.449Z,74.75
2018-04-29T09:05:46.486Z,75.10
2018-04-29T09:06:46.534Z,75.10
2018-04-29T09:07:46.310Z,75.45
2018-04-29T09:08:47.675Z,76.12
2018-04-29T09:10:07.498Z,76.69
2018-04-29T09:11:07.566Z,77.84
2018-04-29T09:12:07.494Z,77.84
2018-04-29T09:13:07.437Z,78.57
2018-04-29T09:14:08.336Z,78.28
2018-04-29T09:15:07.367Z,78.86
2018-04-29T09:16:08.469Z,79.72
2018-04-29T09:17:07.383Z,80.20
2018-04-29T09:18:07.779Z,81.64
2018-04-29T09:19:08.132Z,81.84
2018-04-29T09:20:49.937Z,85.72
2018-04-29T09:22:31.559Z,87.64
2018-04-29T09:23:31.395Z,88.65
2018-04-29T09:24:33.084Z,87.88
2018-04-29T09:25:32.422Z,88.27
2018-04-29T09:26:31.313Z,88.65
2018-04-29T09:27:52.240Z,89.47
2018-04-29T09:28:52.439Z,89.76
2018-04-29T09:30:13.900Z,91.29
2018-04-29T09:31:35.401Z,91.10
2018-04-29T09:32:35.375Z,90.33
2018-04-29T09:33:35.830Z,90.33
2018-04-29T09:34:36.877Z,90.72
2018-04-29T09:35:36.231Z,91.86
2018-04-29T09:36:35.801Z,91.96
2018-04-29T09:37:36.155Z,91.49
2018-04-29T09:38:56.114Z,92.63
2018-04-29T09:39:56.008Z,94.07
2018-04-29T09:41:18.697Z,93.78
2018-04-29T09:42:17.654Z,93.88
2018-04-29T09:43:17.696Z,94.74
2018-04-29T09:44:17.556Z,95.12
2018-04-29T09:45:38.644Z,95.51
2018-04-29T09:46:39.734Z,95.75
2018-04-29T09:47:39.018Z,95.75
2018-04-29T09:48:39.033Z,96.08
2018-04-29T09:49:38.945Z,95.60
2018-04-29T09:50:39.553Z,94.74
2018-04-29T09:51:39.044Z,93.01
2018-04-29T09:52:39.291Z,92.05
2018-04-29T09:53:38.329Z,92.15
2018-04-29T09:55:00.297Z,90.90
2018-04-29T09:56:00.717Z,91.67
2018-04-29T09:57:00.964Z,91.42
2018-04-29T09:58:01.084Z,91.24
2018-04-29T09:59:01.381Z,91.14
2018-04-29T10:00:00.501Z,90.56
2018-04-29T10:01:00.336Z,90.28
2018-04-29T10:02:00.763Z,88.84
2018-04-29T10:03:01.357Z,89.27
2018-04-29T10:04:01.682Z,89.99
2018-04-29T10:05:00.915Z,88.41
2018-04-29T10:06:01.362Z,87.55
2018-04-29T10:07:00.663Z,87.84
2018-04-29T10:08:01.121Z,88.60
2018-04-29T10:09:23.133Z,87.74
2018-04-29T10:10:23.738Z,87.45
2018-04-29T10:12:27.936Z,87.74
2018-04-29T10:13:28.600Z,86.74
2018-04-29T10:14:27.716Z,87.12
2018-04-29T10:15:27.736Z,87.26
2018-04-29T10:16:49.005Z,87.07
2018-04-29T10:17:49.868Z,87.74
2018-04-29T10:18:50.338Z,87.84
2018-04-29T10:19:49.707Z,87.59
2018-04-29T10:20:50.171Z,87.78
2018-04-29T10:21:49.263Z,87.59
2018-04-29T10:22:49.644Z,87.59
2018-04-29T10:24:11.161Z,86.92
2018-04-29T10:25:11.584Z,85.96
2018-04-29T10:26:32.841Z,85.19
2018-04-29T10:27:32.903Z,85.58
2018-04-29T10:28:33.192Z,85.67
2018-04-29T10:29:34.358Z,86.15
2018-04-29T10:30:35.323Z,86.11
2018-04-29T10:31:35.085Z,86.97
2018-04-29T10:32:33.384Z,85.92
2018-04-29T10:33:32.857Z,87.16
2018-04-29T10:35:16.887Z,87.26
2018-04-29T10:36:16.288Z,87.55
2018-04-29T10:37:15.631Z,87.21
2018-04-29T10:38:38.362Z,89.04
2018-04-29T10:39:38.882Z,90.76
2018-04-29T10:40:38.371Z,92.68
2018-04-29T10:41:58.749Z,94.12
2018-04-29T10:42:58.971Z,93.35
2018-04-29T10:43:59.946Z,92.87
2018-04-29T10:44:59.153Z,94.02
2018-04-29T10:46:22.525Z,93.30
2018-04-29T10:47:23.186Z,91.19
2018-04-29T10:48:23.087Z,92.58
2018-04-29T10:49:23.779Z,92.29
2018-04-29T10:50:23.229Z,92.05
2018-04-29T10:51:23.168Z,89.07
2018-04-29T10:52:24.279Z,89.07
2018-04-29T10:53:22.627Z,88.83
2018-04-29T10:54:44.551Z,88.45
2018-04-29T10:56:05.757Z,90.03
2018-04-29T10:57:26.599Z,86.57
2018-04-29T10:58:27.290Z,82.82
2018-04-29T10:59:26.726Z,82.43
2018-04-29T11:00:26.740Z,84.30
2018-04-29T11:01:27.216Z,83.92
2018-04-29T11:02:26.175Z,82.96
2018-04-29T11:03:28.190Z,80.94
2018-04-29T11:04:48.264Z,82.42
2018-04-29T11:05:47.612Z,82.27
2018-04-29T11:06:49.514Z,80.77
2018-04-29T11:07:48.129Z,77.92
2018-04-29T11:08:49.933Z,75.74
2018-04-29T11:09:48.375Z,76.07
2018-04-29T11:10:47.715Z,72.34
2018-04-29T11:11:48.396Z,70.90
2018-04-29T11:12:47.639Z,71.09
2018-04-29T11:13:48.731Z,72.12
2018-04-29T11:14:48.182Z,71.19
2018-04-29T11:16:08.893Z,69.10
2018-04-29T11:17:09.031Z,68.17
2018-04-29T11:18:09.423Z,67.40
2018-04-29T11:19:29.921Z,68.01
2018-04-29T11:20:31.240Z,66.98
2018-04-29T11:21:30.664Z,66.30
2018-04-29T11:23:13.211Z,64.21
2018-04-29T11:24:34.697Z,64.11
2018-04-29T11:25:35.158Z,65.20
2018-04-29T11:26:34.355Z,65.01
2018-04-29T11:27:34.496Z,64.01
2018-04-29T11:28:35.073Z,64.27
2018-04-29T11:29:35.548Z,65.11
2018-04-29T11:30:35.178Z,66.11
2018-04-29T11:31:56.447Z,64.34
2018-04-29T11:33:17.518Z,61.79
2018-04-29T11:34:17.845Z,61.94
2018-04-29T11:35:19.313Z,60.10
2018-04-29T11:36:38.501Z,61.14
2018-04-29T11:37:39.209Z,60.94
2018-04-29T11:38:39.227Z,58.91
2018-04-29T11:39:39.454Z,58.33
2018-04-29T11:40:38.952Z,57.87
2018-04-29T11:41:39.200Z,56.71
2018-04-29T11:42:40.598Z,56.71
2018-04-29T11:44:00.158Z,56.83
2018-04-29T11:45:00.561Z,56.28
2018-04-29T11:46:01.055Z,54.70
2018-04-29T11:47:00.387Z,55.96
2018-04-29T11:48:00.703Z,56.15
2018-04-29T11:49:01.563Z,56.15
2018-04-29T11:50:02.450Z,56.57
2018-04-29T11:51:00.786Z,56.28
2018-04-29T11:52:00.128Z,56.18
2018-04-29T11:53:01.199Z,55.21
2018-04-29T11:54:00.505Z,54.27
2018-04-29T11:55:00.428Z,54.85
2018-04-29T11:56:01.458Z,53.66
2018-04-29T11:57:01.075Z,53.75
2018-04-29T11:58:01.082Z,53.49
2018-04-29T11:59:00.013Z,53.83
2018-04-29T12:00:00.607Z,51.87
2018-04-29T12:01:00.993Z,53.16
2018-04-29T12:02:00.772Z,51.82
2018-04-29T12:03:00.198Z,50.65
2018-04-29T12:04:00.365Z,50.87
2018-04-29T12:05:01.020Z,51.36
2018-04-29T12:06:00.047Z,51.94
2018-04-29T12:07:01.022Z,51.92
2018-04-29T12:08:01.079Z,51.89
2018-04-29T12:09:00.483Z,52.57
2018-04-29T12:10:00.792Z,52.09
2018-04-29T12:11:21.306Z,52.14
2018-04-29T12:12:21.275Z,51.29
2018-04-29T12:13:21.674Z,50.95
2018-04-29T12:14:21.624Z,52.06
2018-04-29T12:15:21.026Z,52.55
2018-04-29T12:16:21.177Z,53.22
2018-04-29T12:17:21.533Z,55.43
2018-04-29T12:18:21.655Z,52.98
2018-04-29T12:19:21.127Z,52.25
2018-04-29T12:20:21.667Z,53.77
2018-04-29T12:21:42.423Z,55.78
2018-04-29T12:22:43.416Z,56.20
2018-04-29T12:23:42.876Z,56.68
2018-04-29T12:24:42.224Z,56.36
2018-04-29T12:25:42.182Z,57.14
2018-04-29T12:26:52.148Z,57.71
2018-04-29T12:27:42.241Z,57.53
2018-04-29T12:28:42.443Z,57.04
2018-04-29T12:29:42.483Z,57.36
2018-04-29T12:31:03.935Z,55.90
2018-04-29T12:32:04.455Z,55.90
2018-04-29T12:33:04.473Z,56.10
2018-04-29T12:34:04.247Z,55.88
2018-04-29T12:35:04.257Z,56.75
2018-04-29T12:36:04.436Z,57.91
2018-04-29T12:37:03.594Z,57.04
2018-04-29T12:38:04.064Z,57.40
2018-04-29T12:39:25.005Z,57.20
2018-04-29T12:40:25.933Z,57.88
2018-04-29T12:41:26.303Z,58.47
2018-04-29T12:42:25.562Z,58.07
2018-04-29T12:43:26.131Z,58.20
2018-04-29T12:44:25.397Z,57.33
2018-04-29T12:45:25.608Z,58.47
2018-04-29T12:46:26.383Z,59.21
2018-04-29T12:47:46.639Z,60.78
2018-04-29T12:48:47.051Z,59.31
2018-04-29T12:49:47.467Z,59.79
2018-04-29T12:51:08.993Z,59.40
2018-04-29T12:52:07.871Z,58.24
2018-04-29T12:53:07.783Z,59.98
2018-04-29T12:54:07.763Z,58.75
2018-04-29T12:55:07.806Z,58.47
2018-04-29T12:56:07.807Z,58.65
2018-04-29T12:57:29.146Z,58.47
2018-04-29T12:58:29.025Z,58.53
2018-04-29T12:59:29.372Z,59.40
2018-04-29T13:00:29.358Z,61.05
2018-04-29T13:01:29.462Z,60.63
2018-04-29T13:02:30.129Z,60.44
2018-04-29T13:03:29.012Z,60.82
2018-04-29T13:04:30.191Z,62.08
2018-04-29T13:05:29.286Z,60.14
2018-04-29T13:07:11.416Z,59.63
2018-04-29T13:08:12.207Z,58.37
2018-04-29T13:09:12.298Z,58.86
2018-04-29T13:10:12.158Z,59.86
2018-04-29T13:11:53.417Z,58.04
2018-04-29T13:12:54.561Z,58.24
2018-04-29T13:13:54.756Z,58.53
2018-04-29T13:14:54.232Z,57.40
2018-04-29T13:15:54.075Z,56.85
2018-04-29T13:16:53.928Z,55.32
2018-04-29T13:17:53.771Z,55.64
2018-04-29T13:18:54.417Z,55.62
2018-04-29T13:19:54.478Z,56.49
2018-04-29T13:20:54.896Z,56.77
2018-04-29T13:21:54.307Z,56.68
2018-04-29T13:22:54.596Z,56.59
2018-04-29T13:23:54.125Z,56.41
2018-04-29T13:24:55.086Z,57.32
2018-04-29T13:25:54.432Z,57.06
2018-04-29T13:26:55.340Z,55.21
2018-04-29T13:28:15.284Z,54.53
2018-04-29T13:29:16.799Z,54.90
2018-04-29T13:30:18.618Z,55.06
2018-04-29T13:31:18.301Z,54.86
2018-04-29T13:32:16.522Z,54.45
2018-04-29T13:33:21.534Z,55.54
2018-04-29T13:34:15.656Z,55.54
2018-04-29T13:35:15.961Z,55.06
2018-04-29T13:36:16.867Z,55.35
2018-04-29T13:37:18.481Z,54.48
2018-04-29T13:38:15.687Z,54.86
2018-04-29T13:39:37.388Z,55.67
2018-04-29T13:40:37.848Z,54.82
2018-04-29T13:41:37.767Z,54.53